sensor_id;sensor_type;location;lat;lon;timestamp;pressure;altitude;pressure_sealevel;temperature;humidity
48553;BME280;34335;51.566;6.994;2023-01-29T00:01:22;102463.63;;;-4.74;100.00
48553;BME280;34335;51.566;6.994;2023-01-29T00:03:50;102464.59;;;-4.82;100.00
48553;BME280;34335;51.566;6.994;2023-01-29T00:06:15;102463.88;;;-4.51;100.00
48553;BME280;34335;51.566;6.994;2023-01-29T00:08:41;102456.34;;;-4.31;100.00
48553;BME280;34335;51.566;6.994;2023-01-29T00:11:07;102463.22;;;-4.59;100.00
48553;BME280;34335;51.566;6.994;2023-01-29T00:13:33;102460.09;;;-4.46;100.00
48553;BME280;34335;51.566;6.994;2023-01-29T00:15:59;102466.22;;;-4.63;100.00
48553;BME280;34335;51.566;6.994;2023-01-29T00:18:25;102456.28;;;-4.71;100.00
48553;BME280;34335;51.566;6.994;2023-01-29T00:20:51;102443.31;;;-4.74;100.00
48553;BME280;34335;51.566;6.994;2023-01-29T00:23:17;102436.16;;;-4.59;100.00
48553;BME280;34335;51.566;6.994;2023-01-29T00:25:43;102446.88;;;-4.72;100.00
48553;BME280;34335;51.566;6.994;2023-01-29T00:28:09;102444.75;;;-4.67;100.00
48553;BME280;34335;51.566;6.994;2023-01-29T00:30:35;102442.50;;;-4.83;100.00
48553;BME280;34335;51.566;6.994;2023-01-29T00:33:01;102443.59;;;-4.71;100.00
48553;BME280;34335;51.566;6.994;2023-01-29T00:35:26;102443.25;;;-4.84;100.00
48553;BME280;34335;51.566;6.994;2023-01-29T00:37:51;102450.25;;;-4.81;100.00
48553;BME280;34335;51.566;6.994;2023-01-29T00:40:18;102434.72;;;-4.46;100.00
48553;BME280;34335;51.566;6.994;2023-01-29T00:42:44;102442.72;;;-4.42;100.00
48553;BME280;34335;51.566;6.994;2023-01-29T00:45:28;102440.34;;;-4.78;100.00
48553;BME280;34335;51.566;6.994;2023-01-29T00:47:53;102441.81;;;-4.72;100.00
48553;BME280;34335;51.566;6.994;2023-01-29T00:50:19;102449.00;;;-4.57;100.00
48553;BME280;34335;51.566;6.994;2023-01-29T00:52:44;102452.81;;;-4.81;100.00
48553;BME280;34335;51.566;6.994;2023-01-29T00:55:10;102450.91;;;-4.74;100.00
48553;BME280;34335;51.566;6.994;2023-01-29T00:57:36;102449.56;;;-4.89;100.00
48553;BME280;34335;51.566;6.994;2023-01-29T01:00:04;102452.94;;;-4.80;100.00
48553;BME280;34335;51.566;6.994;2023-01-29T01:02:30;102447.31;;;-4.86;100.00
48553;BME280;34335;51.566;6.994;2023-01-29T01:05:15;102442.56;;;-4.92;100.00
48553;BME280;34335;51.566;6.994;2023-01-29T01:07:45;102447.25;;;-4.96;100.00
48553;BME280;34335;51.566;6.994;2023-01-29T01:10:17;102437.19;;;-4.76;100.00
48553;BME280;34335;51.566;6.994;2023-01-29T01:15:27;102433.72;;;-4.87;100.00
48553;BME280;34335;51.566;6.994;2023-01-29T01:17:55;102427.59;;;-4.89;100.00
48553;BME280;34335;51.566;6.994;2023-01-29T01:20:22;102420.44;;;-4.55;100.00
48553;BME280;34335;51.566;6.994;2023-01-29T01:22:48;102409.13;;;-4.29;100.00
48553;BME280;34335;51.566;6.994;2023-01-29T01:25:13;102411.38;;;-4.32;100.00
48553;BME280;34335;51.566;6.994;2023-01-29T01:27:39;102400.56;;;-4.69;100.00
48553;BME280;34335;51.566;6.994;2023-01-29T01:30:11;102397.06;;;-4.80;100.00
48553;BME280;34335;51.566;6.994;2023-01-29T01:32:37;102396.66;;;-5.04;100.00
48553;BME280;34335;51.566;6.994;2023-01-29T01:35:03;102408.59;;;-5.03;100.00
48553;BME280;34335;51.566;6.994;2023-01-29T01:37:28;102402.97;;;-4.90;100.00
48553;BME280;34335;51.566;6.994;2023-01-29T01:39:54;102408.41;;;-4.95;100.00
48553;BME280;34335;51.566;6.994;2023-01-29T01:42:22;102412.84;;;-4.55;100.00
48553;BME280;34335;51.566;6.994;2023-01-29T01:44:59;102408.78;;;-4.72;100.00
48553;BME280;34335;51.566;6.994;2023-01-29T01:47:35;102406.84;;;-4.55;100.00
48553;BME280;34335;51.566;6.994;2023-01-29T01:50:25;102406.72;;;-4.57;100.00
48553;BME280;34335;51.566;6.994;2023-01-29T01:52:54;102415.09;;;-4.58;100.00
48553;BME280;34335;51.566;6.994;2023-01-29T01:55:25;102416.41;;;-4.72;100.00
48553;BME280;34335;51.566;6.994;2023-01-29T01:57:55;102420.69;;;-4.81;100.00
48553;BME280;34335;51.566;6.994;2023-01-29T02:00:25;102413.53;;;-4.85;100.00
48553;BME280;34335;51.566;6.994;2023-01-29T02:02:51;102410.31;;;-4.74;100.00
48553;BME280;34335;51.566;6.994;2023-01-29T02:05:35;102418.00;;;-4.82;100.00
48553;BME280;34335;51.566;6.994;2023-01-29T02:08:31;102420.06;;;-4.78;100.00
48553;BME280;34335;51.566;6.994;2023-01-29T02:11:18;102409.03;;;-4.79;100.00
48553;BME280;34335;51.566;6.994;2023-01-29T02:13:44;102415.03;;;-4.68;100.00
48553;BME280;34335;51.566;6.994;2023-01-29T02:16:09;102410.91;;;-4.57;100.00
48553;BME280;34335;51.566;6.994;2023-01-29T02:18:34;102408.19;;;-4.40;100.00
48553;BME280;34335;51.566;6.994;2023-01-29T02:21:26;102408.69;;;-4.44;100.00
48553;BME280;34335;51.566;6.994;2023-01-29T02:29:22;102419.75;;;-4.43;100.00
48553;BME280;34335;51.566;6.994;2023-01-29T02:32:16;102419.22;;;-4.68;100.00
48553;BME280;34335;51.566;6.994;2023-01-29T02:34:53;102423.44;;;-4.88;100.00
48553;BME280;34335;51.566;6.994;2023-01-29T02:37:51;102411.00;;;-5.04;100.00
48553;BME280;34335;51.566;6.994;2023-01-29T02:40:28;102409.84;;;-4.70;100.00
48553;BME280;34335;51.566;6.994;2023-01-29T02:43:07;102412.44;;;-4.59;100.00
48553;BME280;34335;51.566;6.994;2023-01-29T02:45:45;102412.78;;;-4.35;100.00
48553;BME280;34335;51.566;6.994;2023-01-29T02:48:19;102406.25;;;-4.42;100.00
48553;BME280;34335;51.566;6.994;2023-01-29T02:50:56;102407.00;;;-4.54;100.00
48553;BME280;34335;51.566;6.994;2023-01-29T02:53:35;102406.44;;;-4.60;100.00
48553;BME280;34335;51.566;6.994;2023-01-29T02:56:14;102413.47;;;-4.47;100.00
48553;BME280;34335;51.566;6.994;2023-01-29T02:59:15;102413.59;;;-4.56;100.00
48553;BME280;34335;51.566;6.994;2023-01-29T03:01:44;102423.88;;;-4.54;100.00
48553;BME280;34335;51.566;6.994;2023-01-29T03:04:18;102421.03;;;-4.67;100.00
48553;BME280;34335;51.566;6.994;2023-01-29T03:06:48;102409.31;;;-4.65;100.00
48553;BME280;34335;51.566;6.994;2023-01-29T03:09:22;102413.06;;;-4.62;100.00
48553;BME280;34335;51.566;6.994;2023-01-29T03:11:51;102403.06;;;-4.50;100.00
48553;BME280;34335;51.566;6.994;2023-01-29T03:14:31;102394.31;;;-4.73;100.00
48553;BME280;34335;51.566;6.994;2023-01-29T03:17:19;102423.00;;;-4.74;100.00
48553;BME280;34335;51.566;6.994;2023-01-29T03:19:46;102430.78;;;-4.43;100.00
48553;BME280;34335;51.566;6.994;2023-01-29T03:22:13;102431.00;;;-4.50;100.00
48553;BME280;34335;51.566;6.994;2023-01-29T03:25:01;102433.16;;;-4.55;100.00
48553;BME280;34335;51.566;6.994;2023-01-29T03:27:56;102424.19;;;-4.41;100.00
48553;BME280;34335;51.566;6.994;2023-01-29T03:30:53;102421.97;;;-4.57;100.00
48553;BME280;34335;51.566;6.994;2023-01-29T03:33:50;102430.31;;;-4.58;100.00
48553;BME280;34335;51.566;6.994;2023-01-29T03:36:22;102426.09;;;-4.38;100.00
48553;BME280;34335;51.566;6.994;2023-01-29T03:38:51;102422.13;;;-4.45;100.00
48553;BME280;34335;51.566;6.994;2023-01-29T03:41:21;102422.88;;;-4.46;100.00
48553;BME280;34335;51.566;6.994;2023-01-29T03:47:07;102422.34;;;-4.33;100.00
48553;BME280;34335;51.566;6.994;2023-01-29T03:49:49;102415.94;;;-3.98;100.00
48553;BME280;34335;51.566;6.994;2023-01-29T03:52:25;102411.66;;;-4.29;100.00
48553;BME280;34335;51.566;6.994;2023-01-29T03:55:39;102418.56;;;-4.47;100.00
48553;BME280;34335;51.566;6.994;2023-01-29T04:03:59;102416.00;;;-4.28;100.00
48553;BME280;34335;51.566;6.994;2023-01-29T04:06:29;102405.78;;;-3.98;100.00
48553;BME280;34335;51.566;6.994;2023-01-29T04:09:02;102398.19;;;-3.88;100.00
48553;BME280;34335;51.566;6.994;2023-01-29T04:11:30;102395.06;;;-4.15;100.00
48553;BME280;34335;51.566;6.994;2023-01-29T04:13:57;102387.38;;;-3.96;100.00
48553;BME280;34335;51.566;6.994;2023-01-29T04:16:27;102383.50;;;-4.11;100.00
48553;BME280;34335;51.566;6.994;2023-01-29T04:18:53;102372.19;;;-4.15;100.00
48553;BME280;34335;51.566;6.994;2023-01-29T04:21:19;102366.84;;;-4.18;100.00
48553;BME280;34335;51.566;6.994;2023-01-29T04:23:45;102368.25;;;-4.22;100.00
48553;BME280;34335;51.566;6.994;2023-01-29T04:29:24;102380.13;;;-4.01;100.00
48553;BME280;34335;51.566;6.994;2023-01-29T04:32:01;102376.03;;;-4.10;100.00
48553;BME280;34335;51.566;6.994;2023-01-29T04:35:00;102381.28;;;-3.87;100.00
48553;BME280;34335;51.566;6.994;2023-01-29T04:43:22;102369.97;;;-3.91;100.00
48553;BME280;34335;51.566;6.994;2023-01-29T04:46:20;102357.41;;;-3.79;100.00
48553;BME280;34335;51.566;6.994;2023-01-29T04:48:58;102352.31;;;-3.79;100.00
48553;BME280;34335;51.566;6.994;2023-01-29T04:51:37;102343.78;;;-3.80;100.00
48553;BME280;34335;51.566;6.994;2023-01-29T04:57:08;102346.22;;;-3.71;100.00
48553;BME280;34335;51.566;6.994;2023-01-29T04:59:45;102348.50;;;-3.74;100.00
48553;BME280;34335;51.566;6.994;2023-01-29T05:02:12;102346.09;;;-3.72;100.00
48553;BME280;34335;51.566;6.994;2023-01-29T05:04:39;102341.00;;;-3.62;100.00
48553;BME280;34335;51.566;6.994;2023-01-29T05:07:09;102339.09;;;-3.65;100.00
48553;BME280;34335;51.566;6.994;2023-01-29T05:09:36;102333.38;;;-3.62;100.00
48553;BME280;34335;51.566;6.994;2023-01-29T05:12:05;102323.59;;;-3.57;100.00
48553;BME280;34335;51.566;6.994;2023-01-29T05:14:33;102321.03;;;-3.57;100.00
48553;BME280;34335;51.566;6.994;2023-01-29T05:17:02;102324.25;;;-3.70;100.00
48553;BME280;34335;51.566;6.994;2023-01-29T05:19:29;102321.44;;;-3.53;100.00
48553;BME280;34335;51.566;6.994;2023-01-29T05:21:55;102315.81;;;-3.59;100.00
48553;BME280;34335;51.566;6.994;2023-01-29T05:24:23;102313.41;;;-3.57;100.00
48553;BME280;34335;51.566;6.994;2023-01-29T05:26:51;102309.69;;;-3.51;100.00
48553;BME280;34335;51.566;6.994;2023-01-29T05:29:35;102310.59;;;-3.61;100.00
48553;BME280;34335;51.566;6.994;2023-01-29T05:32:00;102303.09;;;-3.49;100.00
48553;BME280;34335;51.566;6.994;2023-01-29T05:34:26;102305.78;;;-3.47;100.00
48553;BME280;34335;51.566;6.994;2023-01-29T05:36:51;102305.63;;;-3.49;100.00
48553;BME280;34335;51.566;6.994;2023-01-29T05:39:17;102301.09;;;-3.53;100.00
48553;BME280;34335;51.566;6.994;2023-01-29T05:41:43;102315.59;;;-3.52;100.00
48553;BME280;34335;51.566;6.994;2023-01-29T05:44:09;102311.25;;;-3.53;100.00
48553;BME280;34335;51.566;6.994;2023-01-29T05:46:34;102314.56;;;-3.43;100.00
48553;BME280;34335;51.566;6.994;2023-01-29T05:48:59;102320.50;;;-3.43;100.00
48553;BME280;34335;51.566;6.994;2023-01-29T05:51:25;102332.47;;;-3.42;100.00
48553;BME280;34335;51.566;6.994;2023-01-29T05:53:50;102332.47;;;-3.42;100.00
48553;BME280;34335;51.566;6.994;2023-01-29T05:56:15;102330.19;;;-3.39;100.00
48553;BME280;34335;51.566;6.994;2023-01-29T05:58:41;102331.44;;;-3.34;100.00
48553;BME280;34335;51.566;6.994;2023-01-29T06:01:18;102335.38;;;-3.27;100.00
48553;BME280;34335;51.566;6.994;2023-01-29T06:03:44;102336.03;;;-3.30;100.00
48553;BME280;34335;51.566;6.994;2023-01-29T06:06:10;102336.00;;;-3.19;100.00
48553;BME280;34335;51.566;6.994;2023-01-29T06:08:36;102341.34;;;-3.16;100.00
48553;BME280;34335;51.566;6.994;2023-01-29T06:11:01;102352.69;;;-3.23;100.00
48553;BME280;34335;51.566;6.994;2023-01-29T06:13:27;102349.63;;;-3.19;100.00
48553;BME280;34335;51.566;6.994;2023-01-29T06:15:52;102358.91;;;-3.19;100.00
48553;BME280;34335;51.566;6.994;2023-01-29T06:18:18;102347.81;;;-3.09;100.00
48553;BME280;34335;51.566;6.994;2023-01-29T06:20:43;102353.44;;;-3.14;100.00
48553;BME280;34335;51.566;6.994;2023-01-29T06:23:08;102360.28;;;-3.13;100.00
48553;BME280;34335;51.566;6.994;2023-01-29T06:25:34;102356.75;;;-3.15;100.00
48553;BME280;34335;51.566;6.994;2023-01-29T06:27:59;102350.38;;;-3.20;100.00
48553;BME280;34335;51.566;6.994;2023-01-29T06:30:24;102343.13;;;-3.25;100.00
48553;BME280;34335;51.566;6.994;2023-01-29T06:32:50;102334.63;;;-3.26;100.00
48553;BME280;34335;51.566;6.994;2023-01-29T06:35:19;102339.13;;;-3.01;100.00
48553;BME280;34335;51.566;6.994;2023-01-29T06:37:44;102335.09;;;-3.09;100.00
48553;BME280;34335;51.566;6.994;2023-01-29T06:40:10;102339.66;;;-3.05;100.00
48553;BME280;34335;51.566;6.994;2023-01-29T06:42:35;102329.22;;;-3.08;100.00
48553;BME280;34335;51.566;6.994;2023-01-29T06:45:00;102336.22;;;-3.06;100.00
48553;BME280;34335;51.566;6.994;2023-01-29T06:47:26;102334.81;;;-3.02;100.00
48553;BME280;34335;51.566;6.994;2023-01-29T06:49:51;102346.28;;;-3.07;100.00
48553;BME280;34335;51.566;6.994;2023-01-29T06:52:16;102336.75;;;-3.10;100.00
48553;BME280;34335;51.566;6.994;2023-01-29T06:54:42;102338.41;;;-3.10;100.00
48553;BME280;34335;51.566;6.994;2023-01-29T06:57:07;102333.06;;;-3.03;100.00
48553;BME280;34335;51.566;6.994;2023-01-29T06:59:32;102344.00;;;-3.04;100.00
48553;BME280;34335;51.566;6.994;2023-01-29T07:01:57;102343.63;;;-2.99;100.00
48553;BME280;34335;51.566;6.994;2023-01-29T07:04:23;102348.06;;;-2.96;100.00
48553;BME280;34335;51.566;6.994;2023-01-29T07:06:48;102335.34;;;-3.06;100.00
48553;BME280;34335;51.566;6.994;2023-01-29T07:09:14;102336.63;;;-3.11;100.00
48553;BME280;34335;51.566;6.994;2023-01-29T07:11:39;102344.13;;;-3.03;100.00
48553;BME280;34335;51.566;6.994;2023-01-29T07:14:04;102343.19;;;-2.93;100.00
48553;BME280;34335;51.566;6.994;2023-01-29T07:16:30;102339.00;;;-2.92;100.00
48553;BME280;34335;51.566;6.994;2023-01-29T07:18:56;102342.56;;;-2.90;100.00
48553;BME280;34335;51.566;6.994;2023-01-29T07:21:21;102335.69;;;-2.91;100.00
48553;BME280;34335;51.566;6.994;2023-01-29T07:23:47;102338.09;;;-2.93;100.00
48553;BME280;34335;51.566;6.994;2023-01-29T07:26:12;102332.38;;;-2.90;100.00
48553;BME280;34335;51.566;6.994;2023-01-29T07:28:38;102334.16;;;-2.89;100.00
48553;BME280;34335;51.566;6.994;2023-01-29T07:31:04;102345.13;;;-2.90;100.00
48553;BME280;34335;51.566;6.994;2023-01-29T07:33:30;102350.97;;;-2.91;100.00
48553;BME280;34335;51.566;6.994;2023-01-29T07:35:55;102349.56;;;-2.98;100.00
48553;BME280;34335;51.566;6.994;2023-01-29T07:38:21;102343.06;;;-2.94;100.00
48553;BME280;34335;51.566;6.994;2023-01-29T07:40:46;102345.34;;;-2.87;100.00
48553;BME280;34335;51.566;6.994;2023-01-29T07:43:12;102341.38;;;-2.84;100.00
48553;BME280;34335;51.566;6.994;2023-01-29T07:45:38;102350.56;;;-2.86;100.00
48553;BME280;34335;51.566;6.994;2023-01-29T07:48:05;102342.94;;;-2.86;100.00
48553;BME280;34335;51.566;6.994;2023-01-29T07:50:33;102341.13;;;-2.76;100.00
48553;BME280;34335;51.566;6.994;2023-01-29T07:52:59;102333.84;;;-2.72;100.00
48553;BME280;34335;51.566;6.994;2023-01-29T07:55:24;102342.50;;;-2.70;100.00
48553;BME280;34335;51.566;6.994;2023-01-29T07:57:58;102337.22;;;-2.61;100.00
48553;BME280;34335;51.566;6.994;2023-01-29T08:00:23;102330.13;;;-2.65;100.00
48553;BME280;34335;51.566;6.994;2023-01-29T08:02:49;102332.13;;;-2.61;100.00
48553;BME280;34335;51.566;6.994;2023-01-29T08:05:15;102327.44;;;-2.67;100.00
48553;BME280;34335;51.566;6.994;2023-01-29T08:07:40;102321.69;;;-2.64;100.00
48553;BME280;34335;51.566;6.994;2023-01-29T08:10:05;102333.66;;;-2.63;100.00
48553;BME280;34335;51.566;6.994;2023-01-29T08:12:31;102328.09;;;-2.69;100.00
48553;BME280;34335;51.566;6.994;2023-01-29T08:14:56;102325.91;;;-2.64;100.00
48553;BME280;34335;51.566;6.994;2023-01-29T08:17:21;102320.81;;;-2.64;100.00
48553;BME280;34335;51.566;6.994;2023-01-29T08:19:47;102327.03;;;-2.61;100.00
48553;BME280;34335;51.566;6.994;2023-01-29T08:22:12;102304.88;;;-2.62;100.00
48553;BME280;34335;51.566;6.994;2023-01-29T08:24:39;102312.66;;;-2.60;100.00
48553;BME280;34335;51.566;6.994;2023-01-29T08:27:04;102320.66;;;-2.56;100.00
48553;BME280;34335;51.566;6.994;2023-01-29T08:29:30;102309.66;;;-2.55;100.00
48553;BME280;34335;51.566;6.994;2023-01-29T08:31:55;102312.22;;;-2.55;100.00
48553;BME280;34335;51.566;6.994;2023-01-29T08:34:20;102312.56;;;-2.50;100.00
48553;BME280;34335;51.566;6.994;2023-01-29T08:36:45;102311.69;;;-2.51;100.00
48553;BME280;34335;51.566;6.994;2023-01-29T08:39:11;102306.09;;;-2.46;100.00
48553;BME280;34335;51.566;6.994;2023-01-29T08:41:37;102298.31;;;-2.48;100.00
48553;BME280;34335;51.566;6.994;2023-01-29T08:44:02;102284.94;;;-2.45;100.00
48553;BME280;34335;51.566;6.994;2023-01-29T08:46:28;102281.84;;;-2.41;100.00
48553;BME280;34335;51.566;6.994;2023-01-29T08:48:54;102286.41;;;-2.37;100.00
48553;BME280;34335;51.566;6.994;2023-01-29T08:51:20;102287.03;;;-2.40;100.00
48553;BME280;34335;51.566;6.994;2023-01-29T08:53:45;102289.06;;;-2.36;100.00
48553;BME280;34335;51.566;6.994;2023-01-29T08:56:11;102284.63;;;-2.38;100.00
48553;BME280;34335;51.566;6.994;2023-01-29T08:58:36;102287.75;;;-2.30;100.00
48553;BME280;34335;51.566;6.994;2023-01-29T09:01:06;102285.00;;;-2.33;100.00
48553;BME280;34335;51.566;6.994;2023-01-29T09:03:32;102282.91;;;-2.27;100.00
48553;BME280;34335;51.566;6.994;2023-01-29T09:05:57;102279.69;;;-2.25;100.00
48553;BME280;34335;51.566;6.994;2023-01-29T09:08:22;102277.03;;;-2.26;100.00
48553;BME280;34335;51.566;6.994;2023-01-29T09:10:47;102278.03;;;-2.24;100.00
48553;BME280;34335;51.566;6.994;2023-01-29T09:13:13;102271.75;;;-2.17;100.00
48553;BME280;34335;51.566;6.994;2023-01-29T09:15:38;102262.88;;;-2.23;100.00
48553;BME280;34335;51.566;6.994;2023-01-29T09:18:04;102261.44;;;-2.19;100.00
48553;BME280;34335;51.566;6.994;2023-01-29T09:20:29;102263.44;;;-2.15;100.00
48553;BME280;34335;51.566;6.994;2023-01-29T09:22:54;102257.94;;;-2.09;100.00
48553;BME280;34335;51.566;6.994;2023-01-29T09:25:20;102257.94;;;-2.09;100.00
48553;BME280;34335;51.566;6.994;2023-01-29T09:27:46;102258.16;;;-2.06;100.00
48553;BME280;34335;51.566;6.994;2023-01-29T09:30:11;102251.63;;;-2.02;100.00
48553;BME280;34335;51.566;6.994;2023-01-29T09:32:37;102259.28;;;-2.02;100.00
48553;BME280;34335;51.566;6.994;2023-01-29T09:35:02;102251.75;;;-2.01;100.00
48553;BME280;34335;51.566;6.994;2023-01-29T09:37:27;102252.28;;;-2.05;100.00
48553;BME280;34335;51.566;6.994;2023-01-29T09:39:53;102258.63;;;-2.00;100.00
48553;BME280;34335;51.566;6.994;2023-01-29T09:47:19;102255.50;;;-1.96;100.00
48553;BME280;34335;51.566;6.994;2023-01-29T09:52:48;102254.41;;;-1.88;100.00
48553;BME280;34335;51.566;6.994;2023-01-29T09:55:25;102255.31;;;-1.87;100.00
48553;BME280;34335;51.566;6.994;2023-01-29T09:57:59;102263.09;;;-1.85;100.00
48553;BME280;34335;51.566;6.994;2023-01-29T10:00:33;102253.22;;;-1.81;100.00
48553;BME280;34335;51.566;6.994;2023-01-29T10:09:12;102252.03;;;-1.74;100.00
48553;BME280;34335;51.566;6.994;2023-01-29T10:14:31;102256.34;;;-1.73;100.00
48553;BME280;34335;51.566;6.994;2023-01-29T10:17:14;102259.56;;;-1.76;100.00
48553;BME280;34335;51.566;6.994;2023-01-29T10:20:14;102258.72;;;-1.64;100.00
48553;BME280;34335;51.566;6.994;2023-01-29T10:25:39;102252.38;;;-1.58;100.00
48553;BME280;34335;51.566;6.994;2023-01-29T10:28:15;102250.63;;;-1.47;100.00
48553;BME280;34335;51.566;6.994;2023-01-29T10:30:46;102253.94;;;-1.48;100.00
48553;BME280;34335;51.566;6.994;2023-01-29T10:33:17;102245.03;;;-1.53;100.00
48553;BME280;34335;51.566;6.994;2023-01-29T10:35:46;102244.28;;;-1.52;100.00
48553;BME280;34335;51.566;6.994;2023-01-29T10:46:43;102218.78;;;-1.40;100.00
48553;BME280;34335;51.566;6.994;2023-01-29T10:49:43;102208.78;;;-1.37;100.00
48553;BME280;34335;51.566;6.994;2023-01-29T10:58:36;102215.66;;;-1.36;100.00
48553;BME280;34335;51.566;6.994;2023-01-29T11:01:03;102213.00;;;-1.37;100.00
48553;BME280;34335;51.566;6.994;2023-01-29T11:03:32;102204.13;;;-1.31;100.00
48553;BME280;34335;51.566;6.994;2023-01-29T11:11:42;102185.13;;;-1.22;100.00
48553;BME280;34335;51.566;6.994;2023-01-29T11:14:14;102181.25;;;-1.29;100.00
48553;BME280;34335;51.566;6.994;2023-01-29T11:16:46;102176.25;;;-1.28;100.00
48553;BME280;34335;51.566;6.994;2023-01-29T11:19:12;102175.47;;;-1.27;100.00
48553;BME280;34335;51.566;6.994;2023-01-29T11:21:52;102168.03;;;-1.23;100.00
48553;BME280;34335;51.566;6.994;2023-01-29T11:24:20;102166.34;;;-1.11;100.00
48553;BME280;34335;51.566;6.994;2023-01-29T11:26:47;102168.25;;;-1.20;100.00
48553;BME280;34335;51.566;6.994;2023-01-29T11:29:29;102160.59;;;-1.20;100.00
48553;BME280;34335;51.566;6.994;2023-01-29T11:31:56;102163.34;;;-1.17;100.00
48553;BME280;34335;51.566;6.994;2023-01-29T11:34:24;102157.00;;;-1.11;100.00
48553;BME280;34335;51.566;6.994;2023-01-29T11:37:03;102156.34;;;-1.08;100.00
48553;BME280;34335;51.566;6.994;2023-01-29T11:39:30;102148.31;;;-1.01;100.00
48553;BME280;34335;51.566;6.994;2023-01-29T11:41:57;102140.09;;;-0.97;100.00
48553;BME280;34335;51.566;6.994;2023-01-29T11:44:45;102139.94;;;-0.86;100.00
48553;BME280;34335;51.566;6.994;2023-01-29T11:49:37;102124.06;;;-0.82;100.00
48553;BME280;34335;51.566;6.994;2023-01-29T11:52:06;102117.19;;;-0.83;100.00
48553;BME280;34335;51.566;6.994;2023-01-29T11:54:37;102125.94;;;-0.80;100.00
48553;BME280;34335;51.566;6.994;2023-01-29T12:00:39;102119.59;;;-0.73;100.00
48553;BME280;34335;51.566;6.994;2023-01-29T12:03:31;102115.44;;;-0.71;100.00
48553;BME280;34335;51.566;6.994;2023-01-29T12:19:51;102058.25;;;-0.73;100.00
48553;BME280;34335;51.566;6.994;2023-01-29T12:25:28;102038.44;;;-0.64;100.00
48553;BME280;34335;51.566;6.994;2023-01-29T12:28:04;102029.47;;;-0.57;100.00
48553;BME280;34335;51.566;6.994;2023-01-29T12:30:38;102029.03;;;-0.38;100.00
48553;BME280;34335;51.566;6.994;2023-01-29T12:33:17;102025.47;;;-0.40;100.00
48553;BME280;34335;51.566;6.994;2023-01-29T12:36:08;102007.28;;;-0.44;100.00
48553;BME280;34335;51.566;6.994;2023-01-29T12:38:35;102023.59;;;-0.56;100.00
48553;BME280;34335;51.566;6.994;2023-01-29T12:41:07;102016.50;;;-0.47;100.00
48553;BME280;34335;51.566;6.994;2023-01-29T12:43:42;102016.25;;;-0.38;100.00
48553;BME280;34335;51.566;6.994;2023-01-29T12:46:25;102002.66;;;-0.23;100.00
48553;BME280;34335;51.566;6.994;2023-01-29T12:48:53;102003.06;;;-0.30;100.00
48553;BME280;34335;51.566;6.994;2023-01-29T12:51:25;102000.31;;;-0.47;100.00
48553;BME280;34335;51.566;6.994;2023-01-29T12:54:00;102008.94;;;-0.32;100.00
48553;BME280;34335;51.566;6.994;2023-01-29T12:56:38;101991.28;;;-0.28;100.00
48553;BME280;34335;51.566;6.994;2023-01-29T12:59:27;101988.13;;;-0.24;100.00
48553;BME280;34335;51.566;6.994;2023-01-29T13:01:58;101989.38;;;-0.18;100.00
48553;BME280;34335;51.566;6.994;2023-01-29T13:04:43;101987.13;;;-0.13;100.00
48553;BME280;34335;51.566;6.994;2023-01-29T13:07:19;101985.34;;;-0.14;100.00
48553;BME280;34335;51.566;6.994;2023-01-29T13:09:52;101982.72;;;-0.29;100.00
48553;BME280;34335;51.566;6.994;2023-01-29T13:12:20;101974.53;;;-0.23;100.00
48553;BME280;34335;51.566;6.994;2023-01-29T13:14:52;101970.91;;;-0.13;100.00
48553;BME280;34335;51.566;6.994;2023-01-29T13:17:45;101966.19;;;-0.21;100.00
48553;BME280;34335;51.566;6.994;2023-01-29T13:20:23;101965.91;;;-0.25;100.00
48553;BME280;34335;51.566;6.994;2023-01-29T13:22:51;101963.03;;;-0.17;100.00
48553;BME280;34335;51.566;6.994;2023-01-29T13:25:19;101959.38;;;-0.07;100.00
48553;BME280;34335;51.566;6.994;2023-01-29T13:27:46;101963.72;;;-0.06;100.00
48553;BME280;34335;51.566;6.994;2023-01-29T13:30:27;101958.97;;;0.01;100.00
48553;BME280;34335;51.566;6.994;2023-01-29T13:32:54;101958.19;;;0.02;100.00
48553;BME280;34335;51.566;6.994;2023-01-29T13:35:33;101965.16;;;0.04;100.00
48553;BME280;34335;51.566;6.994;2023-01-29T13:38:00;101954.56;;;-0.02;100.00
48553;BME280;34335;51.566;6.994;2023-01-29T13:40:28;101964.31;;;-0.10;100.00
48553;BME280;34335;51.566;6.994;2023-01-29T13:42:55;101958.41;;;-0.09;100.00
48553;BME280;34335;51.566;6.994;2023-01-29T13:45:24;101965.88;;;-0.12;100.00
48553;BME280;34335;51.566;6.994;2023-01-29T13:47:52;101958.19;;;-0.12;100.00
48553;BME280;34335;51.566;6.994;2023-01-29T13:50:22;101967.97;;;-0.20;100.00
48553;BME280;34335;51.566;6.994;2023-01-29T13:52:56;101954.47;;;-0.17;100.00
48553;BME280;34335;51.566;6.994;2023-01-29T13:55:27;101950.66;;;-0.10;100.00
48553;BME280;34335;51.566;6.994;2023-01-29T13:58:00;101952.38;;;-0.09;100.00
48553;BME280;34335;51.566;6.994;2023-01-29T14:08:00;101943.75;;;-0.11;100.00
48553;BME280;34335;51.566;6.994;2023-01-29T14:10:28;101934.19;;;-0.14;100.00
48553;BME280;34335;51.566;6.994;2023-01-29T14:15:31;101939.31;;;-0.14;100.00
48553;BME280;34335;51.566;6.994;2023-01-29T14:18:13;101933.25;;;-0.16;100.00
48553;BME280;34335;51.566;6.994;2023-01-29T14:20:48;101930.75;;;-0.01;100.00
48553;BME280;34335;51.566;6.994;2023-01-29T14:25:52;101930.19;;;-0.10;100.00
48553;BME280;34335;51.566;6.994;2023-01-29T14:28:22;101923.97;;;-0.14;100.00
48553;BME280;34335;51.566;6.994;2023-01-29T14:30:48;101923.38;;;-0.10;100.00
48553;BME280;34335;51.566;6.994;2023-01-29T14:33:34;101919.75;;;-0.13;100.00
48553;BME280;34335;51.566;6.994;2023-01-29T14:36:05;101918.28;;;-0.10;100.00
48553;BME280;34335;51.566;6.994;2023-01-29T14:38:31;101926.72;;;-0.11;100.00
48553;BME280;34335;51.566;6.994;2023-01-29T14:41:07;101916.50;;;-0.11;100.00
48553;BME280;34335;51.566;6.994;2023-01-29T14:43:37;101918.63;;;-0.04;100.00